sensor_id;sensor_type;location;lat;lon;timestamp;P1;durP1;ratioP1;P2;durP2;ratioP2
57155;SDS011;43023;59.928;10.682;2023-06-26T00:00:30;2.03;;;1.50;;
57155;SDS011;43023;59.928;10.682;2023-06-26T00:02:57;2.20;;;2.10;;
57155;SDS011;43023;59.928;10.682;2023-06-26T00:05:23;1.52;;;1.42;;
57155;SDS011;43023;59.928;10.682;2023-06-26T00:07:49;1.40;;;1.30;;
57155;SDS011;43023;59.928;10.682;2023-06-26T00:10:15;1.60;;;1.50;;
57155;SDS011;43023;59.928;10.682;2023-06-26T00:12:41;1.58;;;1.48;;
57155;SDS011;43023;59.928;10.682;2023-06-26T00:15:08;1.65;;;1.50;;
57155;SDS011;43023;59.928;10.682;2023-06-26T00:17:34;1.42;;;1.33;;
57155;SDS011;43023;59.928;10.682;2023-06-26T00:20:02;1.58;;;1.48;;
57155;SDS011;43023;59.928;10.682;2023-06-26T00:22:30;1.65;;;1.52;;
57155;SDS011;43023;59.928;10.682;2023-06-26T00:24:56;1.42;;;1.33;;
57155;SDS011;43023;59.928;10.682;2023-06-26T00:27:22;1.50;;;1.40;;
57155;SDS011;43023;59.928;10.682;2023-06-26T00:29:48;1.40;;;1.30;;
57155;SDS011;43023;59.928;10.682;2023-06-26T00:32:15;1.75;;;1.65;;
57155;SDS011;43023;59.928;10.682;2023-06-26T00:34:41;1.75;;;1.65;;
57155;SDS011;43023;59.928;10.682;2023-06-26T00:37:07;2.70;;;2.00;;
57155;SDS011;43023;59.928;10.682;2023-06-26T00:39:33;1.88;;;1.70;;
57155;SDS011;43023;59.928;10.682;2023-06-26T00:42:00;1.95;;;1.85;;
57155;SDS011;43023;59.928;10.682;2023-06-26T00:44:26;1.23;;;1.20;;
57155;SDS011;43023;59.928;10.682;2023-06-26T00:46:52;2.20;;;1.75;;
57155;SDS011;43023;59.928;10.682;2023-06-26T00:49:19;1.90;;;1.73;;
57155;SDS011;43023;59.928;10.682;2023-06-26T00:51:45;1.25;;;1.15;;
57155;SDS011;43023;59.928;10.682;2023-06-26T00:54:12;1.75;;;1.55;;
57155;SDS011;43023;59.928;10.682;2023-06-26T00:56:44;1.50;;;1.40;;
57155;SDS011;43023;59.928;10.682;2023-06-26T00:59:11;1.75;;;1.30;;
57155;SDS011;43023;59.928;10.682;2023-06-26T01:01:37;1.40;;;1.30;;
57155;SDS011;43023;59.928;10.682;2023-06-26T01:04:03;1.17;;;1.08;;
57155;SDS011;43023;59.928;10.682;2023-06-26T01:06:30;1.13;;;1.13;;
57155;SDS011;43023;59.928;10.682;2023-06-26T01:09:00;1.40;;;1.30;;
57155;SDS011;43023;59.928;10.682;2023-06-26T01:11:27;1.40;;;1.30;;
57155;SDS011;43023;59.928;10.682;2023-06-26T01:13:53;1.58;;;1.48;;
57155;SDS011;43023;59.928;10.682;2023-06-26T01:16:20;1.30;;;1.20;;
57155;SDS011;43023;59.928;10.682;2023-06-26T01:18:47;1.20;;;1.05;;
57155;SDS011;43023;59.928;10.682;2023-06-26T01:21:14;1.40;;;1.30;;
57155;SDS011;43023;59.928;10.682;2023-06-26T01:26:22;1.42;;;1.30;;
57155;SDS011;43023;59.928;10.682;2023-06-26T01:28:52;1.30;;;1.20;;
57155;SDS011;43023;59.928;10.682;2023-06-26T01:31:19;1.45;;;1.35;;
57155;SDS011;43023;59.928;10.682;2023-06-26T01:33:46;1.52;;;1.42;;
57155;SDS011;43023;59.928;10.682;2023-06-26T01:36:12;6.85;;;1.50;;
57155;SDS011;43023;59.928;10.682;2023-06-26T01:38:38;1.40;;;1.35;;
57155;SDS011;43023;59.928;10.682;2023-06-26T01:41:04;1.48;;;1.38;;
57155;SDS011;43023;59.928;10.682;2023-06-26T01:43:42;1.45;;;1.35;;
57155;SDS011;43023;59.928;10.682;2023-06-26T01:51:20;1.00;;;1.00;;
57155;SDS011;43023;59.928;10.682;2023-06-26T01:53:48;1.52;;;1.42;;
57155;SDS011;43023;59.928;10.682;2023-06-26T01:56:18;1.77;;;1.65;;
57155;SDS011;43023;59.928;10.682;2023-06-26T01:58:45;1.00;;;1.00;;
57155;SDS011;43023;59.928;10.682;2023-06-26T02:01:14;1.30;;;1.20;;
57155;SDS011;43023;59.928;10.682;2023-06-26T02:03:41;1.20;;;1.20;;
57155;SDS011;43023;59.928;10.682;2023-06-26T02:06:07;1.10;;;1.10;;
57155;SDS011;43023;59.928;10.682;2023-06-26T02:08:33;1.35;;;1.05;;
57155;SDS011;43023;59.928;10.682;2023-06-26T02:10:59;1.73;;;1.02;;
57155;SDS011;43023;59.928;10.682;2023-06-26T02:13:25;1.15;;;1.10;;
57155;SDS011;43023;59.928;10.682;2023-06-26T02:15:51;1.60;;;1.50;;
57155;SDS011;43023;59.928;10.682;2023-06-26T02:18:17;1.20;;;1.20;;
57155;SDS011;43023;59.928;10.682;2023-06-26T02:20:43;1.40;;;1.30;;
57155;SDS011;43023;59.928;10.682;2023-06-26T02:23:10;0.90;;;0.90;;
57155;SDS011;43023;59.928;10.682;2023-06-26T02:25:36;1.10;;;1.10;;
57155;SDS011;43023;59.928;10.682;2023-06-26T02:28:02;1.30;;;1.20;;
57155;SDS011;43023;59.928;10.682;2023-06-26T02:30:28;1.42;;;1.33;;
57155;SDS011;43023;59.928;10.682;2023-06-26T02:32:54;1.40;;;1.13;;
57155;SDS011;43023;59.928;10.682;2023-06-26T02:35:20;1.50;;;1.40;;
57155;SDS011;43023;59.928;10.682;2023-06-26T02:37:46;1.40;;;1.30;;
57155;SDS011;43023;59.928;10.682;2023-06-26T02:40:12;1.77;;;1.00;;
57155;SDS011;43023;59.928;10.682;2023-06-26T02:42:38;1.05;;;1.05;;
57155;SDS011;43023;59.928;10.682;2023-06-26T02:45:04;1.23;;;1.23;;
57155;SDS011;43023;59.928;10.682;2023-06-26T02:47:30;1.15;;;1.10;;
57155;SDS011;43023;59.928;10.682;2023-06-26T02:49:56;1.23;;;1.00;;
57155;SDS011;43023;59.928;10.682;2023-06-26T02:52:23;1.40;;;1.30;;
57155;SDS011;43023;59.928;10.682;2023-06-26T02:54:49;1.38;;;1.30;;
57155;SDS011;43023;59.928;10.682;2023-06-26T02:57:15;1.17;;;1.17;;
57155;SDS011;43023;59.928;10.682;2023-06-26T02:59:42;1.48;;;1.33;;
57155;SDS011;43023;59.928;10.682;2023-06-26T03:02:08;0.95;;;0.95;;
57155;SDS011;43023;59.928;10.682;2023-06-26T03:04:34;1.27;;;1.17;;
57155;SDS011;43023;59.928;10.682;2023-06-26T03:07:01;1.42;;;1.33;;
57155;SDS011;43023;59.928;10.682;2023-06-26T03:09:28;1.55;;;1.20;;
57155;SDS011;43023;59.928;10.682;2023-06-26T03:11:54;1.73;;;1.10;;
57155;SDS011;43023;59.928;10.682;2023-06-26T03:14:20;1.10;;;1.10;;
57155;SDS011;43023;59.928;10.682;2023-06-26T03:16:46;0.90;;;0.90;;
57155;SDS011;43023;59.928;10.682;2023-06-26T03:19:13;1.30;;;1.20;;
57155;SDS011;43023;59.928;10.682;2023-06-26T03:21:39;1.20;;;1.10;;
57155;SDS011;43023;59.928;10.682;2023-06-26T03:24:05;1.42;;;1.20;;
57155;SDS011;43023;59.928;10.682;2023-06-26T03:26:31;1.38;;;1.27;;
57155;SDS011;43023;59.928;10.682;2023-06-26T03:28:57;1.42;;;1.35;;
57155;SDS011;43023;59.928;10.682;2023-06-26T03:31:23;1.65;;;1.20;;
57155;SDS011;43023;59.928;10.682;2023-06-26T03:33:50;1.35;;;1.17;;
57155;SDS011;43023;59.928;10.682;2023-06-26T03:36:16;1.02;;;1.02;;
57155;SDS011;43023;59.928;10.682;2023-06-26T03:38:42;1.10;;;1.10;;
57155;SDS011;43023;59.928;10.682;2023-06-26T03:41:08;0.90;;;0.90;;
57155;SDS011;43023;59.928;10.682;2023-06-26T03:43:34;0.93;;;0.93;;
57155;SDS011;43023;59.928;10.682;2023-06-26T03:46:00;1.05;;;0.95;;
57155;SDS011;43023;59.928;10.682;2023-06-26T03:48:26;1.20;;;1.10;;
57155;SDS011;43023;59.928;10.682;2023-06-26T03:50:52;1.25;;;1.20;;
57155;SDS011;43023;59.928;10.682;2023-06-26T03:53:18;1.27;;;1.17;;
57155;SDS011;43023;59.928;10.682;2023-06-26T03:55:44;0.90;;;0.90;;
57155;SDS011;43023;59.928;10.682;2023-06-26T03:58:11;1.13;;;1.10;;
57155;SDS011;43023;59.928;10.682;2023-06-26T04:00:37;0.95;;;0.95;;
57155;SDS011;43023;59.928;10.682;2023-06-26T04:03:03;1.20;;;1.10;;
57155;SDS011;43023;59.928;10.682;2023-06-26T04:05:29;0.93;;;0.93;;
57155;SDS011;43023;59.928;10.682;2023-06-26T04:07:55;1.20;;;1.10;;
57155;SDS011;43023;59.928;10.682;2023-06-26T04:10:21;2.13;;;1.00;;
57155;SDS011;43023;59.928;10.682;2023-06-26T04:12:47;1.13;;;1.02;;
57155;SDS011;43023;59.928;10.682;2023-06-26T04:15:13;1.20;;;0.90;;
57155;SDS011;43023;59.928;10.682;2023-06-26T04:17:40;1.17;;;1.08;;
57155;SDS011;43023;59.928;10.682;2023-06-26T04:20:06;1.50;;;1.40;;
57155;SDS011;43023;59.928;10.682;2023-06-26T04:22:33;2.00;;;1.05;;
57155;SDS011;43023;59.928;10.682;2023-06-26T04:25:01;1.23;;;1.10;;
57155;SDS011;43023;59.928;10.682;2023-06-26T04:27:28;1.08;;;1.00;;
57155;SDS011;43023;59.928;10.682;2023-06-26T04:29:54;1.08;;;1.08;;
57155;SDS011;43023;59.928;10.682;2023-06-26T04:32:20;1.58;;;1.20;;
57155;SDS011;43023;59.928;10.682;2023-06-26T04:34:46;2.40;;;1.05;;
57155;SDS011;43023;59.928;10.682;2023-06-26T04:37:13;1.98;;;1.42;;
57155;SDS011;43023;59.928;10.682;2023-06-26T04:39:42;2.08;;;1.88;;
57155;SDS011;43023;59.928;10.682;2023-06-26T04:42:08;2.92;;;1.98;;
57155;SDS011;43023;59.928;10.682;2023-06-26T04:44:37;2.00;;;1.70;;
57155;SDS011;43023;59.928;10.682;2023-06-26T04:47:03;1.95;;;1.75;;
57155;SDS011;43023;59.928;10.682;2023-06-26T04:49:29;2.28;;;2.08;;
57155;SDS011;43023;59.928;10.682;2023-06-26T04:51:56;2.25;;;2.00;;
57155;SDS011;43023;59.928;10.682;2023-06-26T04:54:25;1.90;;;1.70;;
57155;SDS011;43023;59.928;10.682;2023-06-26T04:56:51;1.63;;;1.52;;
57155;SDS011;43023;59.928;10.682;2023-06-26T04:59:17;2.50;;;2.30;;
57155;SDS011;43023;59.928;10.682;2023-06-26T05:01:43;4.30;;;1.95;;
57155;SDS011;43023;59.928;10.682;2023-06-26T05:04:13;2.22;;;1.48;;
57155;SDS011;43023;59.928;10.682;2023-06-26T05:06:39;2.15;;;1.95;;
57155;SDS011;43023;59.928;10.682;2023-06-26T05:09:05;3.20;;;2.00;;
57155;SDS011;43023;59.928;10.682;2023-06-26T05:11:31;5.88;;;1.73;;
57155;SDS011;43023;59.928;10.682;2023-06-26T05:13:57;6.38;;;2.30;;
57155;SDS011;43023;59.928;10.682;2023-06-26T05:16:23;1.70;;;1.60;;
57155;SDS011;43023;59.928;10.682;2023-06-26T05:18:49;2.88;;;1.90;;
57155;SDS011;43023;59.928;10.682;2023-06-26T05:21:15;2.00;;;1.80;;
57155;SDS011;43023;59.928;10.682;2023-06-26T05:23:42;2.15;;;1.27;;
57155;SDS011;43023;59.928;10.682;2023-06-26T05:26:11;2.33;;;2.13;;
57155;SDS011;43023;59.928;10.682;2023-06-26T05:28:38;3.40;;;1.75;;
57155;SDS011;43023;59.928;10.682;2023-06-26T05:31:04;4.63;;;1.80;;
57155;SDS011;43023;59.928;10.682;2023-06-26T05:33:30;7.47;;;2.65;;
57155;SDS011;43023;59.928;10.682;2023-06-26T05:35:57;4.50;;;1.80;;
57155;SDS011;43023;59.928;10.682;2023-06-26T05:38:24;7.85;;;2.33;;
57155;SDS011;43023;59.928;10.682;2023-06-26T05:40:50;5.25;;;2.05;;
57155;SDS011;43023;59.928;10.682;2023-06-26T05:43:16;5.43;;;1.52;;
57155;SDS011;43023;59.928;10.682;2023-06-26T05:45:46;1.58;;;1.48;;
57155;SDS011;43023;59.928;10.682;2023-06-26T05:48:12;2.47;;;1.67;;
57155;SDS011;43023;59.928;10.682;2023-06-26T05:50:38;2.55;;;1.60;;
57155;SDS011;43023;59.928;10.682;2023-06-26T05:53:07;6.30;;;1.63;;
57155;SDS011;43023;59.928;10.682;2023-06-26T05:55:33;2.22;;;1.80;;
57155;SDS011;43023;59.928;10.682;2023-06-26T05:57:59;3.30;;;1.60;;
57155;SDS011;43023;59.928;10.682;2023-06-26T06:00:26;2.03;;;1.70;;
57155;SDS011;43023;59.928;10.682;2023-06-26T06:02:52;1.92;;;1.67;;
57155;SDS011;43023;59.928;10.682;2023-06-26T06:05:22;3.35;;;1.40;;
57155;SDS011;43023;59.928;10.682;2023-06-26T06:07:48;2.45;;;1.38;;
57155;SDS011;43023;59.928;10.682;2023-06-26T06:10:14;4.20;;;1.40;;
57155;SDS011;43023;59.928;10.682;2023-06-26T06:12:41;2.92;;;1.60;;
57155;SDS011;43023;59.928;10.682;2023-06-26T06:15:07;1.52;;;1.38;;
57155;SDS011;43023;59.928;10.682;2023-06-26T06:17:33;3.90;;;1.52;;
57155;SDS011;43023;59.928;10.682;2023-06-26T06:19:59;1.60;;;1.50;;
57155;SDS011;43023;59.928;10.682;2023-06-26T06:22:25;2.40;;;1.50;;
57155;SDS011;43023;59.928;10.682;2023-06-26T06:24:51;3.85;;;1.40;;
57155;SDS011;43023;59.928;10.682;2023-06-26T06:27:17;1.65;;;1.33;;
57155;SDS011;43023;59.928;10.682;2023-06-26T06:29:43;1.52;;;1.42;;
57155;SDS011;43023;59.928;10.682;2023-06-26T06:32:10;5.30;;;1.48;;
57155;SDS011;43023;59.928;10.682;2023-06-26T06:34:36;4.40;;;1.35;;
57155;SDS011;43023;59.928;10.682;2023-06-26T06:37:02;4.38;;;1.92;;
57155;SDS011;43023;59.928;10.682;2023-06-26T06:39:28;3.00;;;1.50;;
57155;SDS011;43023;59.928;10.682;2023-06-26T06:41:55;3.88;;;1.58;;
57155;SDS011;43023;59.928;10.682;2023-06-26T06:44:21;3.25;;;1.48;;
57155;SDS011;43023;59.928;10.682;2023-06-26T06:46:47;2.83;;;1.85;;
57155;SDS011;43023;59.928;10.682;2023-06-26T06:49:13;3.45;;;1.30;;
57155;SDS011;43023;59.928;10.682;2023-06-26T06:51:39;2.53;;;1.45;;
57155;SDS011;43023;59.928;10.682;2023-06-26T06:54:06;1.60;;;1.27;;
57155;SDS011;43023;59.928;10.682;2023-06-26T06:56:32;2.58;;;1.40;;
57155;SDS011;43023;59.928;10.682;2023-06-26T06:58:58;1.48;;;1.38;;
57155;SDS011;43023;59.928;10.682;2023-06-26T07:01:24;1.42;;;1.25;;
57155;SDS011;43023;59.928;10.682;2023-06-26T07:03:50;2.85;;;1.30;;
57155;SDS011;43023;59.928;10.682;2023-06-26T07:06:16;1.80;;;1.45;;
57155;SDS011;43023;59.928;10.682;2023-06-26T07:08:42;1.92;;;1.42;;
57155;SDS011;43023;59.928;10.682;2023-06-26T07:11:08;1.52;;;1.30;;
57155;SDS011;43023;59.928;10.682;2023-06-26T07:13:34;1.83;;;1.42;;
57155;SDS011;43023;59.928;10.682;2023-06-26T07:16:00;2.10;;;1.20;;
57155;SDS011;43023;59.928;10.682;2023-06-26T07:18:26;1.55;;;1.27;;
57155;SDS011;43023;59.928;10.682;2023-06-26T07:20:52;2.22;;;1.38;;
57155;SDS011;43023;59.928;10.682;2023-06-26T07:23:18;3.53;;;1.33;;
57155;SDS011;43023;59.928;10.682;2023-06-26T07:25:44;1.20;;;1.08;;
57155;SDS011;43023;59.928;10.682;2023-06-26T07:28:11;1.40;;;1.00;;
57155;SDS011;43023;59.928;10.682;2023-06-26T07:30:37;1.75;;;1.27;;
57155;SDS011;43023;59.928;10.682;2023-06-26T07:33:03;4.93;;;1.15;;
57155;SDS011;43023;59.928;10.682;2023-06-26T07:35:29;2.35;;;1.42;;
57155;SDS011;43023;59.928;10.682;2023-06-26T07:37:55;1.58;;;1.42;;
57155;SDS011;43023;59.928;10.682;2023-06-26T07:40:21;3.78;;;1.35;;
57155;SDS011;43023;59.928;10.682;2023-06-26T07:42:48;1.58;;;0.98;;
57155;SDS011;43023;59.928;10.682;2023-06-26T07:45:15;1.40;;;1.15;;
57155;SDS011;43023;59.928;10.682;2023-06-26T07:47:41;1.75;;;1.50;;
57155;SDS011;43023;59.928;10.682;2023-06-26T07:50:07;1.65;;;1.10;;
57155;SDS011;43023;59.928;10.682;2023-06-26T07:52:33;1.40;;;1.10;;
57155;SDS011;43023;59.928;10.682;2023-06-26T07:54:59;2.20;;;1.40;;
57155;SDS011;43023;59.928;10.682;2023-06-26T07:57:25;1.42;;;0.88;;
57155;SDS011;43023;59.928;10.682;2023-06-26T07:59:52;1.88;;;1.40;;
57155;SDS011;43023;59.928;10.682;2023-06-26T08:02:18;1.73;;;1.30;;
57155;SDS011;43023;59.928;10.682;2023-06-26T08:04:44;1.40;;;1.30;;
57155;SDS011;43023;59.928;10.682;2023-06-26T08:07:10;1.40;;;1.27;;
57155;SDS011;43023;59.928;10.682;2023-06-26T08:09:36;1.10;;;1.00;;
57155;SDS011;43023;59.928;10.682;2023-06-26T08:12:03;1.10;;;1.00;;
57155;SDS011;43023;59.928;10.682;2023-06-26T08:14:29;1.05;;;0.90;;
57155;SDS011;43023;59.928;10.682;2023-06-26T08:16:56;2.08;;;1.10;;
57155;SDS011;43023;59.928;10.682;2023-06-26T08:19:24;1.52;;;1.13;;
57155;SDS011;43023;59.928;10.682;2023-06-26T08:21:50;0.68;;;0.68;;
57155;SDS011;43023;59.928;10.682;2023-06-26T08:24:16;1.27;;;0.80;;
57155;SDS011;43023;59.928;10.682;2023-06-26T08:26:44;1.10;;;1.00;;
57155;SDS011;43023;59.928;10.682;2023-06-26T08:29:11;1.40;;;1.08;;
57155;SDS011;43023;59.928;10.682;2023-06-26T08:31:37;1.58;;;1.05;;
57155;SDS011;43023;59.928;10.682;2023-06-26T08:34:04;1.17;;;0.98;;
57155;SDS011;43023;59.928;10.682;2023-06-26T08:36:31;2.42;;;1.00;;
57155;SDS011;43023;59.928;10.682;2023-06-26T08:38:57;3.33;;;0.93;;
57155;SDS011;43023;59.928;10.682;2023-06-26T08:41:23;1.08;;;1.00;;
57155;SDS011;43023;59.928;10.682;2023-06-26T08:43:49;0.85;;;0.80;;
57155;SDS011;43023;59.928;10.682;2023-06-26T08:46:17;1.08;;;0.95;;
57155;SDS011;43023;59.928;10.682;2023-06-26T08:48:45;1.27;;;1.17;;
57155;SDS011;43023;59.928;10.682;2023-06-26T08:51:13;1.08;;;1.00;;
57155;SDS011;43023;59.928;10.682;2023-06-26T08:54:00;2.13;;;1.00;;
57155;SDS011;43023;59.928;10.682;2023-06-26T08:56:35;2.05;;;1.00;;
57155;SDS011;43023;59.928;10.682;2023-06-26T08:59:01;0.70;;;0.70;;
57155;SDS011;43023;59.928;10.682;2023-06-26T09:01:27;1.95;;;0.88;;
57155;SDS011;43023;59.928;10.682;2023-06-26T09:03:54;0.80;;;0.80;;
57155;SDS011;43023;59.928;10.682;2023-06-26T09:06:20;0.85;;;0.85;;
57155;SDS011;43023;59.928;10.682;2023-06-26T09:08:46;1.55;;;0.90;;
57155;SDS011;43023;59.928;10.682;2023-06-26T09:11:13;3.72;;;0.80;;
57155;SDS011;43023;59.928;10.682;2023-06-26T09:13:39;1.33;;;0.80;;
57155;SDS011;43023;59.928;10.682;2023-06-26T09:16:08;0.60;;;0.60;;
57155;SDS011;43023;59.928;10.682;2023-06-26T09:18:35;0.68;;;0.68;;
57155;SDS011;43023;59.928;10.682;2023-06-26T09:21:05;2.78;;;0.70;;
57155;SDS011;43023;59.928;10.682;2023-06-26T09:23:32;0.98;;;0.90;;
57155;SDS011;43023;59.928;10.682;2023-06-26T09:25:58;1.33;;;0.82;;
57155;SDS011;43023;59.928;10.682;2023-06-26T09:28:24;0.60;;;0.60;;
57155;SDS011;43023;59.928;10.682;2023-06-26T09:30:50;1.10;;;1.10;;
57155;SDS011;43023;59.928;10.682;2023-06-26T09:33:18;0.63;;;0.63;;
57155;SDS011;43023;59.928;10.682;2023-06-26T09:35:44;1.10;;;1.00;;
57155;SDS011;43023;59.928;10.682;2023-06-26T09:38:11;0.80;;;0.80;;
57155;SDS011;43023;59.928;10.682;2023-06-26T09:40:38;1.60;;;0.70;;
57155;SDS011;43023;59.928;10.682;2023-06-26T09:43:07;0.80;;;0.80;;
57155;SDS011;43023;59.928;10.682;2023-06-26T09:45:34;0.80;;;0.80;;
57155;SDS011;43023;59.928;10.682;2023-06-26T09:48:03;0.98;;;0.98;;
57155;SDS011;43023;59.928;10.682;2023-06-26T09:50:30;0.63;;;0.63;;
57155;SDS011;43023;59.928;10.682;2023-06-26T09:53:02;0.95;;;0.80;;
57155;SDS011;43023;59.928;10.682;2023-06-26T09:55:34;0.90;;;0.70;;
57155;SDS011;43023;59.928;10.682;2023-06-26T09:58:01;0.65;;;0.65;;
57155;SDS011;43023;59.928;10.682;2023-06-26T10:00:28;1.00;;;0.75;;
57155;SDS011;43023;59.928;10.682;2023-06-26T10:02:54;0.80;;;0.60;;
57155;SDS011;43023;59.928;10.682;2023-06-26T10:05:20;0.80;;;0.80;;
57155;SDS011;43023;59.928;10.682;2023-06-26T10:07:46;0.70;;;0.70;;
57155;SDS011;43023;59.928;10.682;2023-06-26T10:10:13;1.05;;;0.90;;
57155;SDS011;43023;59.928;10.682;2023-06-26T10:12:40;0.82;;;0.80;;
57155;SDS011;43023;59.928;10.682;2023-06-26T10:15:06;0.80;;;0.80;;
57155;SDS011;43023;59.928;10.682;2023-06-26T10:17:37;0.75;;;0.75;;
57155;SDS011;43023;59.928;10.682;2023-06-26T10:20:04;1.13;;;1.02;;
57155;SDS011;43023;59.928;10.682;2023-06-26T10:22:34;0.85;;;0.52;;
57155;SDS011;43023;59.928;10.682;2023-06-26T10:25:01;0.70;;;0.60;;
57155;SDS011;43023;59.928;10.682;2023-06-26T10:27:33;1.40;;;0.60;;
57155;SDS011;43023;59.928;10.682;2023-06-26T10:30:00;4.03;;;0.82;;
57155;SDS011;43023;59.928;10.682;2023-06-26T10:32:28;0.60;;;0.60;;
57155;SDS011;43023;59.928;10.682;2023-06-26T10:34:55;1.10;;;0.98;;
57155;SDS011;43023;59.928;10.682;2023-06-26T10:37:21;0.93;;;0.80;;
57155;SDS011;43023;59.928;10.682;2023-06-26T10:40:07;1.33;;;0.90;;
57155;SDS011;43023;59.928;10.682;2023-06-26T10:42:36;0.75;;;0.60;;
57155;SDS011;43023;59.928;10.682;2023-06-26T10:45:20;1.65;;;0.93;;
57155;SDS011;43023;59.928;10.682;2023-06-26T10:47:47;0.60;;;0.60;;
57155;SDS011;43023;59.928;10.682;2023-06-26T10:50:17;0.77;;;0.77;;
57155;SDS011;43023;59.928;10.682;2023-06-26T10:52:44;0.50;;;0.50;;
57155;SDS011;43023;59.928;10.682;2023-06-26T10:55:10;0.70;;;0.70;;
57155;SDS011;43023;59.928;10.682;2023-06-26T10:57:36;0.50;;;0.50;;
57155;SDS011;43023;59.928;10.682;2023-06-26T11:00:10;0.60;;;0.60;;
57155;SDS011;43023;59.928;10.682;2023-06-26T11:02:49;0.88;;;0.88;;
57155;SDS011;43023;59.928;10.682;2023-06-26T11:05:28;0.90;;;0.90;;
57155;SDS011;43023;59.928;10.682;2023-06-26T11:08:04;0.70;;;0.70;;
57155;SDS011;43023;59.928;10.682;2023-06-26T11:10:47;0.80;;;0.70;;
57155;SDS011;43023;59.928;10.682;2023-06-26T11:13:13;0.73;;;0.73;;
57155;SDS011;43023;59.928;10.682;2023-06-26T11:15:40;0.70;;;0.70;;
57155;SDS011;43023;59.928;10.682;2023-06-26T11:18:09;0.82;;;0.82;;
57155;SDS011;43023;59.928;10.682;2023-06-26T11:20:35;0.70;;;0.70;;
57155;SDS011;43023;59.928;10.682;2023-06-26T11:23:01;0.95;;;0.52;;
57155;SDS011;43023;59.928;10.682;2023-06-26T11:25:34;0.70;;;0.50;;
57155;SDS011;43023;59.928;10.682;2023-06-26T11:28:00;1.30;;;0.88;;
57155;SDS011;43023;59.928;10.682;2023-06-26T11:30:26;0.60;;;0.60;;
57155;SDS011;43023;59.928;10.682;2023-06-26T11:32:52;0.60;;;0.60;;
57155;SDS011;43023;59.928;10.682;2023-06-26T11:35:23;2.45;;;1.00;;
57155;SDS011;43023;59.928;10.682;2023-06-26T11:37:59;0.52;;;0.52;;
57155;SDS011;43023;59.928;10.682;2023-06-26T11:40:29;0.70;;;0.70;;
57155;SDS011;43023;59.928;10.682;2023-06-26T11:43:00;0.95;;;0.70;;
57155;SDS011;43023;59.928;10.682;2023-06-26T11:45:30;0.65;;;0.40;;
57155;SDS011;43023;59.928;10.682;2023-06-26T11:47:57;0.85;;;0.85;;
57155;SDS011;43023;59.928;10.682;2023-06-26T11:50:23;0.93;;;0.80;;
57155;SDS011;43023;59.928;10.682;2023-06-26T11:52:53;0.60;;;0.60;;
57155;SDS011;43023;59.928;10.682;2023-06-26T11:55:20;0.75;;;0.60;;
57155;SDS011;43023;59.928;10.682;2023-06-26T11:57:49;0.70;;;0.70;;
57155;SDS011;43023;59.928;10.682;2023-06-26T12:00:16;0.77;;;0.77;;
57155;SDS011;43023;59.928;10.682;2023-06-26T12:02:45;0.75;;;0.50;;
57155;SDS011;43023;59.928;10.682;2023-06-26T12:05:17;0.57;;;0.57;;
57155;SDS011;43023;59.928;10.682;2023-06-26T12:07:44;0.55;;;0.55;;
57155;SDS011;43023;59.928;10.682;2023-06-26T12:10:11;0.70;;;0.70;;
57155;SDS011;43023;59.928;10.682;2023-06-26T12:12:37;0.80;;;0.80;;
57155;SDS011;43023;59.928;10.682;2023-06-26T12:15:04;0.70;;;0.70;;
57155;SDS011;43023;59.928;10.682;2023-06-26T12:17:31;0.60;;;0.60;;
57155;SDS011;43023;59.928;10.682;2023-06-26T12:19:57;1.23;;;0.80;;
57155;SDS011;43023;59.928;10.682;2023-06-26T12:22:23;0.60;;;0.60;;
57155;SDS011;43023;59.928;10.682;2023-06-26T12:24:49;1.02;;;0.70;;
57155;SDS011;43023;59.928;10.682;2023-06-26T12:27:17;1.13;;;1.00;;
57155;SDS011;43023;59.928;10.682;2023-06-26T12:29:49;2.78;;;0.90;;
57155;SDS011;43023;59.928;10.682;2023-06-26T12:32:15;2.87;;;1.20;;
57155;SDS011;43023;59.928;10.682;2023-06-26T12:34:42;1.33;;;1.20;;
57155;SDS011;43023;59.928;10.682;2023-06-26T12:37:12;1.95;;;0.70;;
57155;SDS011;43023;59.928;10.682;2023-06-26T12:42:34;0.80;;;0.80;;
57155;SDS011;43023;59.928;10.682;2023-06-26T12:45:09;1.20;;;1.10;;
57155;SDS011;43023;59.928;10.682;2023-06-26T12:47:36;1.10;;;0.88;;
57155;SDS011;43023;59.928;10.682;2023-06-26T12:50:04;0.65;;;0.65;;
57155;SDS011;43023;59.928;10.682;2023-06-26T12:52:31;1.33;;;1.23;;
57155;SDS011;43023;59.928;10.682;2023-06-26T12:54:57;2.75;;;1.42;;
57155;SDS011;43023;59.928;10.682;2023-06-26T12:57:23;1.30;;;1.20;;
57155;SDS011;43023;59.928;10.682;2023-06-26T12:59:49;2.00;;;1.00;;
57155;SDS011;43023;59.928;10.682;2023-06-26T13:02:15;2.33;;;1.00;;
57155;SDS011;43023;59.928;10.682;2023-06-26T13:04:41;2.90;;;1.40;;
57155;SDS011;43023;59.928;10.682;2023-06-26T13:07:09;1.23;;;1.00;;
57155;SDS011;43023;59.928;10.682;2023-06-26T13:09:35;1.42;;;1.27;;
57155;SDS011;43023;59.928;10.682;2023-06-26T13:12:02;1.45;;;1.15;;
57155;SDS011;43023;59.928;10.682;2023-06-26T13:14:29;2.42;;;1.10;;
57155;SDS011;43023;59.928;10.682;2023-06-26T13:16:55;0.95;;;0.95;;
57155;SDS011;43023;59.928;10.682;2023-06-26T13:19:21;1.38;;;1.27;;
57155;SDS011;43023;59.928;10.682;2023-06-26T13:21:47;2.30;;;1.23;;
57155;SDS011;43023;59.928;10.682;2023-06-26T13:24:13;5.00;;;1.40;;
57155;SDS011;43023;59.928;10.682;2023-06-26T13:26:39;2.30;;;2.05;;
57155;SDS011;43023;59.928;10.682;2023-06-26T13:29:05;1.80;;;1.65;;
57155;SDS011;43023;59.928;10.682;2023-06-26T13:31:32;2.75;;;1.80;;
57155;SDS011;43023;59.928;10.682;2023-06-26T13:33:58;1.75;;;1.30;;
57155;SDS011;43023;59.928;10.682;2023-06-26T13:36:24;1.38;;;1.25;;
57155;SDS011;43023;59.928;10.682;2023-06-26T13:38:51;6.75;;;1.23;;
57155;SDS011;43023;59.928;10.682;2023-06-26T13:41:21;3.78;;;1.30;;
57155;SDS011;43023;59.928;10.682;2023-06-26T13:43:47;3.40;;;1.45;;
57155;SDS011;43023;59.928;10.682;2023-06-26T13:46:13;3.38;;;1.40;;
57155;SDS011;43023;59.928;10.682;2023-06-26T13:48:39;2.85;;;1.08;;
57155;SDS011;43023;59.928;10.682;2023-06-26T13:51:05;3.35;;;1.50;;
57155;SDS011;43023;59.928;10.682;2023-06-26T13:53:31;2.83;;;1.50;;
57155;SDS011;43023;59.928;10.682;2023-06-26T13:55:57;1.48;;;1.38;;
57155;SDS011;43023;59.928;10.682;2023-06-26T13:58:23;1.85;;;1.42;;
57155;SDS011;43023;59.928;10.682;2023-06-26T14:00:52;1.20;;;1.10;;
57155;SDS011;43023;59.928;10.682;2023-06-26T14:05:44;1.90;;;1.35;;
57155;SDS011;43023;59.928;10.682;2023-06-26T14:08:10;5.03;;;1.70;;
57155;SDS011;43023;59.928;10.682;2023-06-26T14:10:36;1.48;;;1.17;;
57155;SDS011;43023;59.928;10.682;2023-06-26T14:13:03;2.60;;;1.38;;
57155;SDS011;43023;59.928;10.682;2023-06-26T14:15:29;1.33;;;1.23;;
57155;SDS011;43023;59.928;10.682;2023-06-26T14:17:56;1.50;;;1.40;;
57155;SDS011;43023;59.928;10.682;2023-06-26T14:20:22;1.67;;;1.30;;
57155;SDS011;43023;59.928;10.682;2023-06-26T14:22:49;1.23;;;1.15;;
57155;SDS011;43023;59.928;10.682;2023-06-26T14:25:16;2.80;;;1.60;;
57155;SDS011;43023;59.928;10.682;2023-06-26T14:27:42;1.58;;;1.48;;
57155;SDS011;43023;59.928;10.682;2023-06-26T14:30:08;1.50;;;1.40;;
57155;SDS011;43023;59.928;10.682;2023-06-26T14:32:35;2.65;;;1.30;;
57155;SDS011;43023;59.928;10.682;2023-06-26T14:35:01;1.65;;;1.55;;
57155;SDS011;43023;59.928;10.682;2023-06-26T14:37:28;1.02;;;0.95;;
57155;SDS011;43023;59.928;10.682;2023-06-26T14:39:54;5.28;;;2.50;;
57155;SDS011;43023;59.928;10.682;2023-06-26T14:42:21;6.93;;;3.35;;
57155;SDS011;43023;59.928;10.682;2023-06-26T14:44:47;4.22;;;2.50;;